Hastings, North Dakota
Current Conditions -  °F | °C
As of 12:55 PM on Sunday 23 Nov 2014 (Local Time) from KBAC Reporting Station
Light Snow Light Snow  
Wind Chill: 20°   Ceiling: 3300
Heat Index: 32°   Visibility: 10mi
Dew Point: 23°   Wind: 21mph
Humidity: 69%   Direction: 290°WNW
Pressure: 29.47"   Gusts: 30mph
Location:  46.7176°N, 97.9974°W
Report Text: KBAC 231855Z AUTO 29018G26KT 10SM -SN OVC033 00/M05 A2947 RMK AO2
Loading
Personal Weather Stations






























Interactive Weather Map New forecast layout! Learn more

10-Day Weather Forecast

Advertisements
Track Severe Weather on mobile